createdAt,value
2022-08-17T00:01:27.222Z,93363.28
2022-08-17T00:16:56.643Z,93358.13
2022-08-17T00:31:56.207Z,93369.91
2022-08-17T00:46:57.704Z,93361.63
2022-08-17T01:01:59.423Z,93360.16
2022-08-17T01:17:01.045Z,93359.38
2022-08-17T01:32:04.391Z,93358.78
2022-08-17T01:47:06.119Z,93341.75
2022-08-17T02:02:07.720Z,93349.81
2022-08-17T02:17:09.238Z,93378.34
2022-08-17T02:32:27.513Z,93359.56
2022-08-17T02:47:30.132Z,93353.44
2022-08-17T03:02:37.266Z,93378.59
2022-08-17T03:17:39.372Z,93377.78
2022-08-17T03:32:43.275Z,93380.69
2022-08-17T03:48:03.190Z,93388.69
2022-08-17T04:03:04.818Z,93398.59
2022-08-17T04:18:07.664Z,93389.94
2022-08-17T04:33:14.336Z,93418.50
2022-08-17T04:48:16.628Z,93430.16
2022-08-17T05:03:18.175Z,93435.88
2022-08-17T05:18:19.717Z,93434.78
2022-08-17T05:33:23.170Z,93440.72
2022-08-17T05:48:39.079Z,93445.63
2022-08-17T06:03:41.845Z,93443.22
2022-08-17T06:18:49.713Z,93447.47
2022-08-17T06:33:51.380Z,93450.53
2022-08-17T06:49:09.023Z,93450.41
2022-08-17T07:04:13.791Z,93441.34
2022-08-17T07:19:16.894Z,93443.41
2022-08-17T07:34:18.667Z,93446.75
2022-08-17T07:49:22.681Z,93439.88
2022-08-17T08:19:52.033Z,93437.53
2022-08-17T08:35:06.627Z,93421.69
2022-08-17T08:50:08.218Z,93424.97
2022-08-17T09:05:48.707Z,93416.53
2022-08-17T09:20:50.552Z,93415.09
2022-08-17T09:36:10.203Z,93442.31
2022-08-17T09:51:23.674Z,93417.81
2022-08-17T10:06:30.299Z,93412.44
2022-08-17T10:22:00.634Z,93400.94
2022-08-17T10:37:21.661Z,93389.81
2022-08-17T10:52:24.892Z,93385.25
2022-08-17T11:07:43.879Z,93380.56
2022-08-17T11:22:52.893Z,93375.19
2022-08-17T11:38:16.200Z,93376.50
2022-08-17T11:53:38.616Z,93382.03
2022-08-17T12:08:43.555Z,93386.38
2022-08-17T12:23:47.978Z,93410.56
2022-08-17T12:38:57.335Z,93403.59
2022-08-17T12:53:59.505Z,93379.50
2022-08-17T13:09:12.052Z,93369.25
2022-08-17T13:24:17.698Z,93368.03
2022-08-17T13:39:21.440Z,93361.78
2022-08-17T13:54:27.894Z,93350.84
2022-08-17T14:09:36.878Z,93341.44
2022-08-17T14:24:44.737Z,93338.94
2022-08-17T14:39:46.784Z,93336.63
2022-08-17T14:54:51.629Z,93341.78
2022-08-17T15:09:53.151Z,93342.41
2022-08-17T15:24:55.849Z,93349.31
2022-08-17T15:39:58.127Z,93339.84
2022-08-17T15:55:01.170Z,93341.53
2022-08-17T16:10:03.372Z,93350.13
2022-08-17T16:25:07.595Z,93355.75
2022-08-17T16:40:09.454Z,93359.00
2022-08-17T16:55:13.356Z,93366.94
2022-08-17T17:10:20.001Z,93380.03
2022-08-17T17:25:25.226Z,93399.72
2022-08-17T17:40:38.307Z,93416.72
2022-08-17T17:55:47.249Z,93420.09
2022-08-17T18:11:04.684Z,93441.13
2022-08-17T18:26:06.508Z,93452.88
2022-08-17T18:41:18.397Z,93466.66
2022-08-17T18:56:26.460Z,93468.69
2022-08-17T19:11:34.192Z,93479.16
2022-08-17T19:26:54.772Z,93488.66
2022-08-17T19:42:01.268Z,93499.13
2022-08-17T19:57:08.418Z,93503.00
2022-08-17T20:12:13.421Z,93499.06
2022-08-17T20:27:14.964Z,93501.06
2022-08-17T20:42:22.464Z,93498.06
2022-08-17T20:57:32.983Z,93509.50
2022-08-17T21:12:42.599Z,93505.28
2022-08-17T21:27:59.963Z,93501.94
2022-08-17T21:43:16.438Z,93510.84
2022-08-17T21:58:31.447Z,93517.19
2022-08-17T22:16:29.083Z,93524.78
2022-08-17T22:31:52.210Z,93511.03
2022-08-17T22:46:57.156Z,93502.47
2022-08-17T23:02:13.545Z,93504.13
2022-08-17T23:17:16.433Z,93504.19
2022-08-17T23:32:18.609Z,93495.19
2022-08-17T23:47:21.127Z,93496.94
